EISG/SXL METAR and TAF weather

Enter ICAO airport designator
Station Type Date Time Source
EISG METAR 2019/06/26 17:30 UTC NOAA

EISG 261730Z 03014KT 9999 SCT040 18/12 Q1031


Station Type Date Time Source
EISG Decoded METAR 2019/06/26 17:30 UTC NOAA

Station name not available
Jun 26, 2019 - 01:30 PM EDT / 2019.06.26 1730 UTC
Wind: from the NNE (030 degrees) at 16 MPH (14 KT):0
Visibility: greater than 7 mile(s):0
Sky conditions: partly cloudy
Temperature: 64 F (18 C)
Dew Point: 53 F (12 C)
Relative Humidity: 67%
Pressure (altimeter): 30.45 in. Hg (1031 hPa)
ob: EISG 261730Z 03014KT 9999 SCT040 18/12 Q1031
cycle: 17

Station Type Date Time Source
EISG TAF UTC NOAA

Error!

Example: see airport list